createdAt,value
2023-05-11T00:00:52.250Z,9.60
2023-05-11T00:03:39.774Z,9.50
2023-05-11T00:06:28.672Z,9.40
2023-05-11T00:09:16.264Z,9.30
2023-05-11T00:12:04.090Z,9.30
2023-05-11T00:14:51.930Z,9.30
2023-05-11T00:17:39.301Z,9.20
2023-05-11T00:20:26.659Z,9.20
2023-05-11T00:23:16.296Z,9.20
2023-05-11T00:26:03.716Z,9.20
2023-05-11T00:28:51.282Z,9.20
2023-05-11T00:31:38.628Z,9.20
2023-05-11T00:34:26.792Z,9.20
2023-05-11T00:37:14.693Z,9.30
2023-05-11T00:40:04.162Z,9.30
2023-05-11T00:42:51.586Z,9.30
2023-05-11T00:45:40.026Z,9.40
2023-05-11T00:48:27.911Z,9.40
2023-05-11T00:51:16.085Z,9.40
2023-05-11T00:54:04.162Z,9.40
2023-05-11T00:56:53.204Z,9.40
2023-05-11T00:59:40.715Z,9.30
2023-05-11T01:02:28.686Z,9.30
2023-05-11T01:08:08.224Z,9.30
2023-05-11T01:11:01.786Z,9.30
2023-05-11T01:13:54.526Z,9.30
2023-05-11T01:16:47.330Z,9.20
2023-05-11T01:19:44.592Z,9.10
2023-05-11T01:22:45.853Z,9.10
2023-05-11T01:25:52.000Z,9.10
2023-05-11T01:29:09.555Z,9.00
2023-05-11T01:32:00.683Z,9.00
2023-05-11T01:34:50.410Z,9.00
2023-05-11T01:37:42.898Z,9.00
2023-05-11T01:40:35.106Z,9.00
2023-05-11T01:43:26.840Z,9.10
2023-05-11T01:46:17.101Z,9.10
2023-05-11T01:49:08.449Z,9.10
2023-05-11T01:51:56.952Z,9.10
2023-05-11T01:54:46.097Z,9.10
2023-05-11T01:57:36.262Z,9.10
2023-05-11T02:00:24.656Z,9.10
2023-05-11T02:03:14.999Z,9.20
2023-05-11T02:06:05.819Z,9.20
2023-05-11T02:08:56.277Z,9.20
2023-05-11T02:11:44.586Z,9.20
2023-05-11T02:14:35.044Z,9.30
2023-05-11T02:17:23.876Z,9.30
2023-05-11T02:20:13.395Z,9.30
2023-05-11T02:23:03.660Z,9.30
2023-05-11T02:25:53.209Z,9.30
2023-05-11T02:28:41.286Z,9.30
2023-05-11T02:31:33.470Z,9.30
2023-05-11T02:34:26.261Z,9.30
2023-05-11T02:37:18.350Z,9.30
2023-05-11T02:40:17.083Z,9.30
2023-05-11T02:43:11.389Z,9.30
2023-05-11T02:46:06.432Z,9.30
2023-05-11T02:49:01.290Z,9.30
2023-05-11T02:51:51.699Z,9.30
2023-05-11T02:54:40.306Z,9.30
2023-05-11T02:57:29.862Z,9.40
2023-05-11T03:00:22.115Z,9.40
2023-05-11T03:03:10.355Z,9.40
2023-05-11T03:05:57.817Z,9.40
2023-05-11T03:08:45.695Z,9.40
2023-05-11T03:11:33.605Z,9.40
2023-05-11T03:14:23.448Z,9.40
2023-05-11T03:17:13.015Z,9.40
2023-05-11T03:20:03.588Z,9.30
2023-05-11T03:22:52.603Z,9.40
2023-05-11T03:25:43.345Z,9.40
2023-05-11T03:28:32.315Z,9.40
2023-05-11T03:31:24.948Z,9.40
2023-05-11T03:34:12.625Z,9.40
2023-05-11T03:37:03.476Z,9.40
2023-05-11T03:39:56.415Z,9.50
2023-05-11T03:42:44.729Z,9.50
2023-05-11T03:45:34.352Z,9.50
2023-05-11T03:48:26.142Z,9.50
2023-05-11T03:51:14.018Z,9.60
2023-05-11T03:54:01.506Z,9.60
2023-05-11T03:56:49.104Z,9.70
2023-05-11T03:59:37.023Z,9.70
2023-05-11T04:02:25.302Z,9.70
2023-05-11T04:05:15.078Z,9.80
2023-05-11T04:08:06.656Z,9.80
2023-05-11T04:10:54.462Z,9.90
2023-05-11T04:13:42.239Z,9.90
2023-05-11T04:16:29.911Z,10.00
2023-05-11T04:19:17.577Z,10.00
2023-05-11T04:22:06.425Z,10.00
2023-05-11T04:24:54.274Z,10.10
2023-05-11T04:27:41.927Z,10.10
2023-05-11T04:30:29.613Z,10.20
2023-05-11T04:33:17.509Z,10.20
2023-05-11T04:36:05.536Z,10.30
2023-05-11T04:38:54.530Z,10.40
2023-05-11T04:41:42.418Z,10.50
2023-05-11T04:44:29.935Z,10.60
2023-05-11T04:47:17.694Z,10.70
2023-05-11T04:50:08.158Z,10.80
2023-05-11T04:52:57.074Z,10.90
2023-05-11T04:55:45.928Z,10.90
2023-05-11T04:58:33.423Z,11.00
2023-05-11T05:01:21.268Z,11.10
2023-05-11T05:04:08.795Z,11.20
2023-05-11T05:06:56.137Z,11.20
2023-05-11T05:09:45.313Z,11.30
2023-05-11T05:12:36.263Z,11.30
2023-05-11T05:15:23.873Z,11.40
2023-05-11T05:18:11.621Z,11.50
2023-05-11T05:20:59.519Z,11.60
2023-05-11T05:23:47.074Z,11.70
2023-05-11T05:26:34.584Z,11.70
2023-05-11T05:29:24.925Z,11.80
2023-05-11T05:32:12.734Z,11.90
2023-05-11T05:35:00.819Z,12.00
2023-05-11T05:37:49.068Z,12.10
2023-05-11T05:40:39.494Z,12.20
2023-05-11T05:43:28.133Z,12.50
2023-05-11T05:46:17.078Z,12.60
2023-05-11T05:49:04.774Z,12.70
2023-05-11T05:51:52.930Z,12.80
2023-05-11T05:54:40.986Z,13.00
2023-05-11T05:57:30.601Z,13.10
2023-05-11T06:00:19.171Z,13.20
2023-05-11T06:03:15.947Z,13.20
2023-05-11T06:06:03.638Z,13.40
2023-05-11T06:08:51.722Z,13.50
2023-05-11T06:11:39.723Z,13.60
2023-05-11T06:14:27.555Z,13.70
2023-05-11T06:17:15.278Z,13.80
2023-05-11T06:20:04.558Z,14.00
2023-05-11T06:22:52.038Z,14.10
2023-05-11T06:25:40.003Z,14.30
2023-05-11T06:28:27.839Z,14.60
2023-05-11T06:31:19.800Z,14.90
2023-05-11T06:34:10.154Z,15.10
2023-05-11T06:37:02.694Z,15.40
2023-05-11T06:39:50.318Z,15.60
2023-05-11T06:42:37.923Z,15.80
2023-05-11T06:45:29.705Z,16.00
2023-05-11T06:48:17.565Z,16.20
2023-05-11T06:51:05.595Z,16.30
2023-05-11T06:53:54.677Z,16.40
2023-05-11T06:56:43.024Z,16.50
2023-05-11T06:59:30.776Z,16.60
2023-05-11T07:02:18.110Z,16.80
2023-05-11T07:05:06.032Z,16.90
2023-05-11T07:07:53.396Z,16.90
2023-05-11T07:10:42.892Z,17.10
2023-05-11T07:13:30.226Z,17.20
2023-05-11T07:16:17.680Z,17.30
2023-05-11T07:19:05.599Z,17.40
2023-05-11T07:21:53.403Z,17.50
2023-05-11T07:24:40.674Z,17.60
2023-05-11T07:27:31.217Z,17.60
2023-05-11T07:30:19.017Z,17.70
2023-05-11T07:33:07.002Z,17.70
2023-05-11T07:35:54.431Z,17.90
2023-05-11T07:38:42.284Z,18.00
2023-05-11T07:41:30.964Z,18.00
2023-05-11T07:44:19.829Z,18.00
2023-05-11T07:47:07.421Z,18.00
2023-05-11T07:49:54.805Z,18.40
2023-05-11T07:52:42.332Z,18.70
2023-05-11T07:55:30.697Z,19.00
2023-05-11T07:58:18.322Z,19.20
2023-05-11T08:01:07.730Z,19.40
2023-05-11T08:03:55.390Z,19.30
2023-05-11T08:06:42.996Z,19.30
2023-05-11T08:09:31.014Z,19.40
2023-05-11T08:12:18.590Z,19.30
2023-05-11T08:15:07.039Z,19.20
2023-05-11T08:17:56.157Z,19.20
2023-05-11T08:20:43.863Z,19.20
2023-05-11T08:23:31.764Z,19.30
2023-05-11T08:26:19.982Z,19.30
2023-05-11T08:29:09.096Z,19.40
2023-05-11T08:31:56.851Z,19.50
2023-05-11T08:34:45.994Z,19.70
2023-05-11T08:37:33.770Z,20.00
2023-05-11T08:40:23.346Z,20.40
2023-05-11T08:43:11.792Z,20.70
2023-05-11T08:46:04.239Z,20.90
2023-05-11T08:48:52.144Z,21.40
2023-05-11T08:51:41.147Z,21.80
2023-05-11T08:54:28.442Z,22.00
2023-05-11T08:57:16.717Z,22.20
2023-05-11T09:00:05.367Z,22.30
2023-05-11T09:02:53.646Z,22.30
2023-05-11T09:05:41.937Z,22.50
2023-05-11T09:08:32.761Z,22.40
2023-05-11T09:11:20.134Z,22.20
2023-05-11T09:14:07.936Z,22.40
2023-05-11T09:16:55.322Z,22.50
2023-05-11T09:19:59.555Z,22.60
2023-05-11T09:22:48.365Z,23.00
2023-05-11T09:25:39.916Z,23.20
2023-05-11T09:28:35.478Z,23.60
2023-05-11T09:31:42.926Z,23.80
2023-05-11T09:34:30.871Z,23.90
2023-05-11T09:37:20.031Z,23.80
2023-05-11T09:40:25.847Z,23.60
2023-05-11T09:43:20.067Z,23.60
2023-05-11T09:46:08.141Z,23.40
2023-05-11T09:49:01.199Z,23.40
2023-05-11T09:51:48.823Z,23.40
2023-05-11T09:54:43.869Z,23.40
2023-05-11T09:57:32.514Z,23.30
2023-05-11T10:00:21.349Z,23.30
2023-05-11T10:03:09.621Z,23.20
2023-05-11T10:05:59.110Z,23.40
2023-05-11T10:08:47.321Z,23.80
2023-05-11T10:11:34.993Z,24.40
2023-05-11T10:14:23.785Z,25.00
2023-05-11T10:17:14.272Z,25.70
2023-05-11T10:20:03.458Z,26.20
2023-05-11T10:22:53.920Z,26.30
2023-05-11T10:25:42.257Z,26.20
2023-05-11T10:28:31.135Z,26.20
2023-05-11T10:31:24.153Z,25.80
2023-05-11T10:34:13.996Z,25.30
2023-05-11T10:37:02.081Z,24.80
2023-05-11T10:39:52.982Z,24.30
2023-05-11T10:43:15.317Z,24.60
2023-05-11T10:46:13.696Z,25.10
2023-05-11T10:49:34.910Z,25.10
2023-05-11T10:52:56.302Z,24.90
2023-05-11T10:56:03.868Z,24.50
2023-05-11T10:59:12.058Z,24.70
2023-05-11T11:02:02.060Z,24.70
2023-05-11T11:04:53.254Z,24.70
2023-05-11T11:08:00.320Z,25.30
2023-05-11T11:10:49.487Z,25.60
2023-05-11T11:13:58.338Z,26.00
2023-05-11T11:17:23.471Z,26.30
2023-05-11T11:20:47.113Z,26.40
2023-05-11T11:23:50.375Z,26.40
2023-05-11T11:26:53.048Z,26.50
2023-05-11T11:29:41.695Z,26.40
2023-05-11T11:32:29.756Z,26.10
2023-05-11T11:35:49.878Z,25.70
2023-05-11T11:39:00.268Z,25.50
2023-05-11T11:42:01.211Z,25.40
2023-05-11T11:44:48.598Z,25.40
2023-05-11T11:47:36.953Z,25.10
2023-05-11T11:50:29.598Z,24.70
2023-05-11T11:53:58.431Z,24.10
2023-05-11T11:56:48.780Z,24.10
2023-05-11T11:59:48.352Z,24.80
2023-05-11T12:02:36.429Z,25.50
2023-05-11T12:05:25.425Z,25.30
2023-05-11T12:08:16.136Z,24.90
2023-05-11T12:11:04.767Z,24.40
2023-05-11T12:13:54.127Z,23.90
2023-05-11T12:16:42.201Z,23.50
2023-05-11T12:19:29.528Z,23.20
2023-05-11T12:22:23.548Z,23.20
2023-05-11T12:25:12.647Z,23.80
2023-05-11T12:28:01.232Z,24.20
2023-05-11T12:30:58.468Z,24.80
2023-05-11T12:33:48.343Z,25.50
2023-05-11T12:36:36.739Z,26.10
2023-05-11T12:39:26.391Z,26.40
2023-05-11T12:42:20.294Z,26.40
2023-05-11T12:45:08.954Z,26.40
2023-05-11T12:47:58.872Z,26.30
2023-05-11T12:50:47.646Z,26.20
2023-05-11T12:53:37.123Z,26.70
2023-05-11T12:56:24.747Z,27.00
2023-05-11T12:59:26.079Z,26.90
2023-05-11T13:02:17.382Z,26.30
2023-05-11T13:05:14.463Z,25.60
2023-05-11T13:08:03.489Z,25.20
2023-05-11T13:10:51.148Z,25.40
2023-05-11T13:13:38.981Z,25.90
2023-05-11T13:16:27.644Z,26.70
2023-05-11T13:19:15.330Z,27.10
2023-05-11T13:22:05.168Z,27.40
2023-05-11T13:25:03.563Z,27.70
2023-05-11T13:27:51.518Z,28.00
2023-05-11T13:30:39.791Z,28.00
2023-05-11T13:33:27.507Z,28.20
2023-05-11T13:36:15.209Z,28.20
2023-05-11T13:39:03.997Z,28.40
2023-05-11T13:41:55.047Z,28.60
2023-05-11T13:44:43.728Z,28.80
2023-05-11T13:47:31.274Z,29.00
2023-05-11T13:50:18.728Z,28.90
2023-05-11T13:53:06.456Z,28.50
2023-05-11T13:55:55.321Z,27.50
2023-05-11T13:58:43.211Z,26.60
2023-05-11T14:01:30.727Z,25.80
2023-05-11T14:04:19.652Z,25.10
2023-05-11T14:07:07.671Z,24.60
2023-05-11T14:09:55.506Z,24.10
2023-05-11T14:12:44.722Z,23.90
2023-05-11T14:15:32.482Z,23.70
2023-05-11T14:18:20.245Z,23.50
2023-05-11T14:21:08.042Z,23.10
2023-05-11T14:24:09.793Z,22.80
2023-05-11T14:26:59.425Z,22.50
2023-05-11T14:29:48.256Z,22.50
2023-05-11T14:32:35.961Z,22.50
2023-05-11T14:35:23.399Z,22.60
2023-05-11T14:38:11.121Z,22.80
2023-05-11T14:41:00.011Z,23.00
2023-05-11T14:43:49.378Z,23.00
2023-05-11T14:46:38.260Z,22.90
2023-05-11T14:49:25.820Z,22.90
2023-05-11T14:52:13.409Z,23.00
2023-05-11T14:55:01.078Z,23.20
2023-05-11T14:57:48.352Z,23.40
2023-05-11T15:00:39.828Z,24.00
2023-05-11T15:03:29.185Z,24.60
2023-05-11T15:06:21.188Z,25.10
2023-05-11T15:09:08.896Z,25.50
2023-05-11T15:11:56.382Z,25.70
2023-05-11T15:14:43.706Z,26.20
2023-05-11T15:17:31.226Z,26.40
2023-05-11T15:20:20.349Z,26.10
2023-05-11T15:23:09.182Z,25.70
2023-05-11T15:25:58.610Z,25.50
2023-05-11T15:28:46.261Z,25.20
2023-05-11T15:31:34.084Z,25.30
2023-05-11T15:34:21.633Z,25.50
2023-05-11T15:37:11.401Z,26.30
2023-05-11T15:39:58.687Z,26.90
2023-05-11T15:42:46.178Z,27.40
2023-05-11T15:45:33.868Z,27.40
2023-05-11T15:48:21.415Z,27.30
2023-05-11T15:51:09.077Z,27.30
2023-05-11T15:53:57.886Z,27.70
2023-05-11T15:56:46.185Z,28.10
2023-05-11T15:59:34.146Z,28.20
2023-05-11T16:02:21.641Z,28.40
2023-05-11T16:05:09.783Z,28.40
2023-05-11T16:07:57.783Z,28.60
2023-05-11T16:10:47.373Z,28.70
2023-05-11T16:13:34.827Z,28.70
2023-05-11T16:16:22.316Z,28.70
2023-05-11T16:19:10.475Z,28.70
2023-05-11T16:21:58.415Z,28.70
2023-05-11T16:24:46.418Z,28.40
2023-05-11T16:27:35.221Z,28.20
2023-05-11T16:30:25.414Z,28.30
2023-05-11T16:33:13.555Z,28.20
2023-05-11T16:36:01.189Z,28.20
2023-05-11T16:38:48.874Z,27.70
2023-05-11T16:41:36.265Z,27.30
2023-05-11T16:44:25.224Z,26.90
2023-05-11T16:47:13.080Z,26.40
2023-05-11T16:50:00.885Z,26.10
2023-05-11T16:52:48.769Z,25.80
2023-05-11T16:55:36.440Z,25.70
2023-05-11T16:58:24.342Z,25.70
2023-05-11T17:01:14.109Z,25.80
2023-05-11T17:04:01.688Z,25.80
2023-05-11T17:06:49.192Z,25.70
2023-05-11T17:09:36.984Z,25.60
2023-05-11T17:12:24.577Z,25.30
2023-05-11T17:15:12.689Z,25.10
2023-05-11T17:18:01.937Z,24.50
2023-05-11T17:20:53.571Z,23.80
2023-05-11T17:23:41.096Z,23.10
2023-05-11T17:26:39.130Z,22.40
2023-05-11T17:29:31.472Z,21.70
2023-05-11T17:32:19.036Z,21.30
2023-05-11T17:35:09.320Z,21.10
2023-05-11T17:37:57.230Z,21.20
2023-05-11T17:40:45.080Z,21.40
2023-05-11T17:43:32.564Z,21.50
2023-05-11T17:46:20.532Z,21.30
2023-05-11T17:49:08.962Z,21.00
2023-05-11T17:51:57.704Z,20.60
2023-05-11T17:54:45.598Z,20.10
2023-05-11T17:57:33.497Z,19.70
2023-05-11T18:00:22.069Z,19.20
2023-05-11T18:03:09.913Z,18.80
2023-05-11T18:05:57.627Z,18.40
2023-05-11T18:08:46.415Z,18.00
2023-05-11T18:11:34.257Z,17.70
2023-05-11T18:14:22.071Z,17.50
2023-05-11T18:17:09.595Z,17.20
2023-05-11T18:19:57.180Z,17.00
2023-05-11T18:22:44.560Z,16.80
2023-05-11T18:25:33.290Z,16.50
2023-05-11T18:28:21.066Z,16.30
2023-05-11T18:31:08.572Z,16.10
2023-05-11T18:33:56.913Z,15.90
2023-05-11T18:36:44.198Z,15.80
2023-05-11T18:39:31.760Z,15.60
2023-05-11T18:42:20.788Z,15.50
2023-05-11T18:45:09.446Z,15.30
2023-05-11T18:47:56.780Z,15.20
2023-05-11T18:50:44.258Z,15.00
2023-05-11T18:53:32.482Z,14.90
2023-05-11T18:56:20.362Z,14.70
2023-05-11T18:59:09.321Z,14.50
2023-05-11T19:01:57.228Z,14.40
2023-05-11T19:04:45.242Z,14.20
2023-05-11T19:07:33.154Z,14.10
2023-05-11T19:10:22.822Z,14.00
2023-05-11T19:13:10.306Z,13.90
2023-05-11T19:15:59.482Z,13.80
2023-05-11T19:18:47.132Z,13.70
2023-05-11T19:21:35.478Z,13.60
2023-05-11T19:24:23.135Z,13.60
2023-05-11T19:27:10.564Z,13.50
2023-05-11T19:29:58.667Z,13.40
2023-05-11T19:32:48.854Z,13.40
2023-05-11T19:35:36.478Z,13.30
2023-05-11T19:38:24.220Z,13.20
2023-05-11T19:41:11.713Z,13.10
2023-05-11T19:43:59.072Z,13.00
2023-05-11T19:46:47.190Z,12.90
2023-05-11T19:49:36.529Z,12.80
2023-05-11T19:52:24.136Z,12.70
2023-05-11T19:55:11.587Z,12.60
2023-05-11T19:57:59.313Z,12.60
2023-05-11T20:00:47.023Z,12.50
2023-05-11T20:03:35.154Z,12.40
2023-05-11T20:06:24.310Z,12.20
2023-05-11T20:09:11.912Z,12.10
2023-05-11T20:11:59.304Z,12.00
2023-05-11T20:14:47.442Z,12.00
2023-05-11T20:17:35.358Z,11.80
2023-05-11T20:20:23.313Z,11.70
2023-05-11T20:23:12.080Z,11.60
2023-05-11T20:25:59.749Z,11.50
2023-05-11T20:28:47.406Z,11.40
2023-05-11T20:31:35.503Z,11.30
2023-05-11T20:34:23.367Z,11.30
2023-05-11T20:37:10.948Z,11.20
2023-05-11T20:39:59.879Z,11.10
2023-05-11T20:42:47.455Z,11.10
2023-05-11T20:45:35.659Z,11.00
2023-05-11T20:48:32.474Z,11.00
2023-05-11T20:51:26.972Z,10.90
2023-05-11T20:54:14.638Z,10.90
2023-05-11T20:57:04.365Z,10.80
2023-05-11T21:02:42.869Z,10.70
2023-05-11T21:05:30.425Z,10.70
2023-05-11T21:08:17.714Z,10.70
2023-05-11T21:11:05.559Z,10.60
2023-05-11T21:13:54.756Z,10.60
2023-05-11T21:16:42.939Z,10.60
2023-05-11T21:19:30.195Z,10.50
2023-05-11T21:22:17.586Z,10.50
2023-05-11T21:25:05.682Z,10.40
2023-05-11T21:27:53.699Z,10.40
2023-05-11T21:30:42.667Z,10.30
2023-05-11T21:33:30.332Z,10.40
2023-05-11T21:36:18.345Z,10.30
2023-05-11T21:39:05.845Z,10.30
2023-05-11T21:41:53.510Z,10.20
2023-05-11T21:44:40.888Z,10.30
2023-05-11T21:47:29.917Z,10.20
2023-05-11T21:50:18.092Z,10.20
2023-05-11T21:53:05.680Z,10.20
2023-05-11T21:55:53.301Z,10.20
2023-05-11T21:58:40.706Z,10.10
2023-05-11T22:01:28.188Z,10.10
2023-05-11T22:04:17.397Z,10.00
2023-05-11T22:07:05.162Z,10.00
2023-05-11T22:09:52.659Z,9.90
2023-05-11T22:12:40.237Z,9.80
2023-05-11T22:15:28.006Z,9.70
2023-05-11T22:18:15.867Z,9.70
2023-05-11T22:21:05.627Z,9.60
2023-05-11T22:23:53.067Z,9.60
2023-05-11T22:26:40.916Z,9.50
2023-05-11T22:29:28.840Z,9.50
2023-05-11T22:32:16.588Z,9.50
2023-05-11T22:35:03.851Z,9.50
2023-05-11T22:37:52.661Z,9.40
2023-05-11T22:40:40.456Z,9.40
2023-05-11T22:43:28.699Z,9.40
2023-05-11T22:46:17.300Z,9.40
2023-05-11T22:49:04.761Z,9.40
2023-05-11T22:51:52.779Z,9.40
2023-05-11T22:54:42.334Z,9.40
2023-05-11T22:57:30.022Z,9.40
2023-05-11T23:00:18.217Z,9.50
2023-05-11T23:03:06.177Z,9.50
2023-05-11T23:05:53.824Z,9.40
2023-05-11T23:08:41.551Z,9.40
2023-05-11T23:11:30.324Z,9.40
2023-05-11T23:14:17.824Z,9.40
2023-05-11T23:17:05.317Z,9.30
2023-05-11T23:19:55.806Z,9.30
2023-05-11T23:22:43.368Z,9.30
2023-05-11T23:25:31.116Z,9.20
2023-05-11T23:28:20.384Z,9.20
2023-05-11T23:31:07.859Z,9.10
2023-05-11T23:33:55.431Z,9.10
2023-05-11T23:36:42.968Z,9.10
2023-05-11T23:39:30.730Z,9.00
2023-05-11T23:42:18.219Z,9.00
2023-05-11T23:45:08.797Z,9.00
2023-05-11T23:47:56.572Z,8.90
2023-05-11T23:50:44.405Z,8.90
2023-05-11T23:53:32.061Z,8.90
2023-05-11T23:56:19.495Z,8.90
2023-05-11T23:59:06.867Z,8.80
